Terminal Aerodrome Forecast
Issued by NWS Twin Cities, MN

Home | Current Version | Previous Version | Graphics & Text | Print | Product List | Glossary On
Versions: 1 2 3 4 5 6 7 8 9 10 11 12 13 14 15 16
000
FTUS43 KMPX 152340
TAFEAU
TAF
KEAU 152340Z 1600/1624 12006KT P6SM SCT150 OVC250
     FM160800 11003KT P6SM OVC100
     FM161000 11003KT P6SM OVC040
     FM161200 11004KT 6SM BR OVC015
     FM161500 12008KT 6SM SHRA BR OVC015=

USA.gov is the U.S. government's official web portal to all federal, state and local government web resources and services.